Time;durP1;ratioP1;P1;durP2;ratioP2;P2;SDS_P1;SDS_P2;PMS_P1;PMS_P2;Temp;Humidity;BMP_temperature;BMP_pressure;BME280_temperature;BME280_humidity;BME280_pressure;Samples;Min_cycle;Max_cycle;Signal;HPM_P1;HPM_P2
2021/04/15 05:52:29;;;;;;;8.07;7.28;;;0.70;99.90;;;;;;4054317;23;20236;-82
2021/04/15 05:55:00;;;;;;;8.23;7.47;;;0.80;99.90;;;;;;4941708;29;20237;-83
2021/04/15 05:57:30;;;;;;;8.63;7.40;;;0.80;99.90;;;;;;4942163;29;20209;-82
2021/04/15 06:00:06;;;;;;;9.18;8.25;;;0.90;99.90;;;;;;4941646;29;20261;-83
2021/04/15 06:02:44;;;;;;;9.18;7.20;;;1.00;99.90;;;;;;4941654;29;20221;-82
2021/04/15 06:05:19;;;;;;;7.93;7.13;;;1.00;99.90;;;;;;4942046;29;20234;-82
2021/04/15 06:07:48;;;;;;;8.05;7.30;;;1.10;99.90;;;;;;4941616;29;20274;-83
2021/04/15 06:10:17;;;;;;;10.90;7.80;;;1.10;99.90;;;;;;4942288;29;20574;-84
2021/04/15 06:12:51;;;;;;;11.85;8.60;;;1.20;99.90;;;;;;4942242;29;20241;-83
2021/04/15 06:15:25;;;;;;;13.75;6.97;;;1.40;99.90;;;;;;4936459;29;20601;-83
2021/04/15 06:18:00;;;;;;;6.88;6.28;;;1.60;99.90;;;;;;4941902;29;20262;-83
2021/04/15 06:20:30;;;;;;;6.85;6.20;;;1.60;99.90;;;;;;4935076;29;20206;-83
2021/04/15 06:23:03;;;;;;;7.55;6.43;;;1.70;99.90;;;;;;4931968;29;20208;-82
2021/04/15 06:25:33;;;;;;;6.85;6.15;;;1.80;99.90;;;;;;4935714;29;20231;-83
2021/04/15 06:28:04;;;;;;;7.10;6.40;;;1.80;99.90;;;;;;4936098;29;20207;-85
2021/04/15 06:30:36;;;;;;;8.23;7.57;;;2.00;99.90;;;;;;4938299;29;20214;-82
2021/04/15 06:33:07;;;;;;;8.45;7.75;;;2.20;99.90;;;;;;4929464;29;20215;-82
2021/04/15 06:35:35;;;;;;;8.32;6.70;;;2.20;99.90;;;;;;4932221;29;20264;-83
2021/04/15 06:38:09;;;;;;;7.60;6.72;;;2.30;99.90;;;;;;4936117;29;20212;-83
2021/04/15 06:40:56;;;;;;;7.95;5.88;;;2.40;99.90;;;;;;4931263;29;20241;-84
2021/04/15 06:43:44;;;;;;;5.35;4.95;;;2.50;99.90;;;;;;4949675;29;20219;-83
2021/04/15 06:46:25;;;;;;;7.25;6.65;;;2.50;99.90;;;;;;4948583;29;20708;-82
2021/04/15 06:49:11;;;;;;;7.63;6.72;;;2.60;99.90;;;;;;4948362;29;20300;-83
2021/04/15 06:51:49;;;;;;;7.45;6.75;;;2.60;99.90;;;;;;4946072;29;20223;-82
2021/04/15 06:54:38;;;;;;;7.10;5.93;;;2.50;99.90;;;;;;4949369;29;20229;-82
2021/04/15 06:57:27;;;;;;;7.05;6.32;;;2.60;99.90;;;;;;4948237;29;20583;-82
2021/04/15 07:00:06;;;;;;;6.60;6.00;;;2.80;99.90;;;;;;4948398;29;20210;-82
2021/04/15 07:02:47;;;;;;;6.13;5.50;;;2.90;99.90;;;;;;4949113;29;20206;-82
2021/04/15 07:05:15;;;;;;;7.28;6.68;;;3.00;99.90;;;;;;4946709;29;20232;-82
2021/04/15 07:07:48;;;;;;;8.13;7.20;;;3.00;99.90;;;;;;4940346;29;20232;-83
2021/04/15 07:10:26;;;;;;;8.05;5.65;;;3.00;99.90;;;;;;4936701;29;20197;-83
2021/04/15 07:13:19;;;;;;;6.90;5.88;;;2.90;99.90;;;;;;4937941;29;20201;-85
2021/04/15 07:16:22;;;;;;;5.90;5.40;;;3.00;99.90;;;;;;4923791;29;20236;-84
2021/04/15 09:00:46;;;;;;;5.25;4.80;;;7.20;90.00;;;;;;4797040;29;20254;-85
2021/04/15 09:04:07;;;;;;;;;;;;;;;;;;;;;
2021/04/15 09:14:00;;;;;;;;;;;;;;;;;;;;;
2021/04/15 10:03:24;;;;;;;3.75;3.40;;;8.60;70.50;;;;;;4823012;29;20677;-86
2021/04/15 10:06:08;;;;;;;3.45;3.15;;;8.70;71.60;;;;;;4851838;29;20222;-83
2021/04/15 10:09:17;;;;;;;;;;;;;;;;;;;;;
2021/04/15 10:19:31;;;;;;;;;;;;;;;;;;;;;
2021/04/15 10:22:08;;;;;;;3.58;3.38;;;9.10;66.80;;;;;;4741406;29;20299;-86
2021/04/15 10:24:39;;;;;;;4.72;3.47;;;9.50;67.60;;;;;;4889315;29;20299;-86
2021/04/15 10:27:52;;;;;;;5.03;3.33;;;9.60;66.60;;;;;;4912537;29;20243;-84
2021/04/15 10:37:47;;;;;;;4.50;4.10;;;9.80;66.70;;;;;;4889444;29;20301;-86
2021/04/15 10:40:42;;;;;;;7.17;3.47;;;9.70;66.40;;;;;;4834129;29;20218;-85
2021/04/15 10:43:42;;;;;;;3.78;3.47;;;9.40;65.20;;;;;;4849190;29;20469;-86
2021/04/15 10:46:42;;;;;;;4.00;3.70;;;9.30;65.70;;;;;;4890380;29;20265;-85
2021/04/15 10:49:32;;;;;;;;;;;;;;;;;;;;;
2021/04/15 10:52:25;;;;;;;3.90;3.42;;;9.50;71.60;;;;;;4893568;29;20212;-85
2021/04/15 10:55:40;;;;;;;4.07;3.67;;;9.50;70.00;;;;;;4865234;29;20247;-84
2021/04/15 11:02:03;;;;;;;;;;;;;;;;;;;;;
2021/04/15 11:11:23;;;;;;;3.90;3.50;;;9.60;72.60;;;;;;4839990;29;20479;-85
2021/04/15 11:17:23;;;;;;;;;;;;;;;;;;;;;
2021/04/15 11:50:14;;;;;;;3.83;2.83;;;13.00;59.10;;;;;;4684521;30;20483;-85
2021/04/15 16:21:18;;;;;;;4.53;4.20;;;9.50;57.60;;;;;;3307382;26;20501;-84
2021/04/15 16:23:46;;;;;;;4.03;3.72;;;9.30;59.30;;;;;;4966750;29;20476;-84
2021/04/15 16:26:14;;;;;;;4.75;4.30;;;9.20;58.60;;;;;;4949621;29;20211;-83
2021/04/15 16:28:41;;;;;;;4.28;3.88;;;8.80;58.70;;;;;;4950048;29;20211;-84
2021/04/15 16:31:09;;;;;;;4.13;3.83;;;8.80;59.60;;;;;;4949974;29;20713;-84
2021/04/15 16:33:39;;;;;;;3.25;2.95;;;8.70;59.10;;;;;;4949127;29;20551;-84
2021/04/15 16:36:06;;;;;;;4.28;3.97;;;8.80;59.70;;;;;;4948897;29;20206;-83
2021/04/15 16:38:39;;;;;;;4.70;4.40;;;8.90;59.60;;;;;;4951203;29;20219;-84
2021/04/15 16:41:06;;;;;;;4.28;3.92;;;8.90;58.30;;;;;;4946722;29;20222;-83
2021/04/15 16:43:33;;;;;;;4.40;3.55;;;9.20;59.20;;;;;;4946815;29;20365;-85
2021/04/15 16:46:00;;;;;;;7.18;4.13;;;9.30;57.90;;;;;;4950497;29;20233;-83
2021/04/15 16:48:27;;;;;;;4.40;4.10;;;9.50;57.70;;;;;;4948502;29;20213;-84
2021/04/15 16:50:53;;;;;;;3.65;3.33;;;9.60;58.00;;;;;;4950751;29;20459;-86
2021/04/15 16:53:20;;;;;;;4.18;3.78;;;9.60;57.30;;;;;;4949645;29;20210;-84
2021/04/15 16:58:52;;;;;;;4.50;3.87;;;9.80;56.20;;;;;;4942667;29;20455;-86
2021/04/15 17:01:19;;;;;;;3.53;3.23;;;9.90;55.60;;;;;;4943259;29;20468;-86
2021/04/15 17:03:48;;;;;;;3.17;2.97;;;10.00;53.60;;;;;;4943039;29;20546;-84
2021/04/15 17:06:16;;;;;;;5.07;3.80;;;10.00;52.90;;;;;;4943466;29;20812;-85
2021/04/15 17:08:43;;;;;;;4.17;3.00;;;10.00;51.70;;;;;;4943590;29;20455;-86
2021/04/15 17:11:10;;;;;;;3.93;3.27;;;10.00;51.20;;;;;;4943764;29;20467;-85
2021/04/15 17:13:36;;;;;;;3.90;3.63;;;10.10;51.20;;;;;;4944018;29;20438;-85
2021/04/15 17:16:03;;;;;;;2.97;2.73;;;10.10;51.10;;;;;;4943361;29;20470;-88
2021/04/15 17:18:32;;;;;;;3.87;3.53;;;10.00;50.60;;;;;;4944011;29;20539;-86
2021/04/15 17:20:59;;;;;;;6.50;4.27;;;10.00;50.70;;;;;;4944181;29;20956;-83
2021/04/15 17:23:28;;;;;;;3.63;3.33;;;9.90;51.50;;;;;;4942193;29;20479;-82
2021/04/15 17:26:19;;;;;;;3.43;3.13;;;9.80;51.20;;;;;;4942063;29;20481;-85
2021/04/15 17:28:47;;;;;;;4.37;3.70;;;10.20;50.10;;;;;;4941261;29;20480;-84
2021/04/15 17:31:13;;;;;;;4.33;3.40;;;10.90;49.80;;;;;;4941748;29;20520;-84
2021/04/15 17:33:40;;;;;;;3.43;3.13;;;11.50;48.40;;;;;;4940806;29;20449;-83
2021/04/15 17:36:06;;;;;;;3.10;2.90;;;12.10;46.00;;;;;;4940717;29;20441;-83
2021/04/15 17:38:33;;;;;;;3.10;2.77;;;12.70;44.70;;;;;;4942933;29;20489;-85
2021/04/15 17:41:05;;;;;;;2.50;2.30;;;13.30;43.60;;;;;;4940980;29;20994;-85
2021/04/15 17:43:36;;;;;;;3.50;2.73;;;13.40;40.60;;;;;;4940945;29;20473;-86
2021/04/15 17:46:04;;;;;;;2.87;2.67;;;13.30;39.90;;;;;;4925311;29;20470;-86
2021/04/15 17:48:32;;;;;;;2.67;2.47;;;13.20;39.90;;;;;;4932936;29;20824;-82
2021/04/15 17:51:01;;;;;;;3.67;3.30;;;12.70;39.80;;;;;;4925887;29;20457;-83
2021/04/15 17:53:28;;;;;;;3.00;2.80;;;12.40;41.00;;;;;;4927122;29;20461;-83
2021/04/15 17:55:55;;;;;;;3.00;2.80;;;12.00;41.30;;;;;;4926333;29;20478;-85
2021/04/15 17:58:23;;;;;;;3.00;2.77;;;11.30;42.50;;;;;;4921910;29;20584;-83
2021/04/15 18:00:49;;;;;;;2.83;2.63;;;10.70;43.90;;;;;;4923523;29;20552;-83
2021/04/15 18:03:17;;;;;;;3.20;3.00;;;10.10;45.20;;;;;;4924071;29;21019;-84
2021/04/15 18:05:45;;;;;;;4.38;4.03;;;9.80;47.70;;;;;;4924773;29;20476;-84
2021/04/15 18:08:12;;;;;;;5.03;3.47;;;9.50;49.30;;;;;;4925062;29;20208;-85
2021/04/15 18:10:44;;;;;;;3.00;2.80;;;9.30;50.40;;;;;;4925494;29;20978;-84
2021/04/15 18:13:12;;;;;;;4.18;3.03;;;9.10;51.50;;;;;;4926154;29;20219;-84
2021/04/15 18:15:38;;;;;;;2.70;2.50;;;8.90;52.30;;;;;;4924497;29;20233;-84
2021/04/15 18:18:05;;;;;;;3.10;2.90;;;8.70;53.10;;;;;;4925864;29;20233;-84
2021/04/15 18:20:35;;;;;;;5.35;3.53;;;8.40;53.30;;;;;;4924937;29;20245;-84
2021/04/15 18:23:02;;;;;;;3.85;3.58;;;8.30;54.00;;;;;;4925516;29;20275;-84
2021/04/15 18:25:28;;;;;;;6.32;5.75;;;8.00;54.50;;;;;;4925628;29;20240;-85
2021/04/15 18:27:56;;;;;;;3.42;3.13;;;7.90;55.30;;;;;;4924130;29;20210;-85
2021/04/15 18:30:26;;;;;;;3.97;3.35;;;7.80;55.80;;;;;;4925107;29;20210;-85
2021/04/15 18:32:52;;;;;;;3.60;3.28;;;7.50;56.00;;;;;;4925821;29;20644;-85
2021/04/15 18:35:19;;;;;;;3.17;2.97;;;7.50;56.20;;;;;;4919843;29;20238;-82
2021/04/15 18:37:47;;;;;;;2.80;2.60;;;7.40;56.50;;;;;;4918764;29;20306;-80
2021/04/15 18:40:18;;;;;;;3.95;3.25;;;7.30;56.90;;;;;;4919132;29;20218;-80
2021/04/15 18:42:44;;;;;;;4.45;4.15;;;7.20;57.40;;;;;;4920486;29;20377;-84
2021/04/15 18:45:12;;;;;;;2.97;2.67;;;7.00;57.60;;;;;;4921749;29;20221;-83
2021/04/15 18:47:41;;;;;;;3.88;3.10;;;7.00;57.80;;;;;;4922087;29;20206;-85
2021/04/15 18:50:11;;;;;;;3.45;3.25;;;7.00;58.00;;;;;;4922417;29;20248;-84
2021/04/15 18:52:37;;;;;;;5.10;3.60;;;6.90;58.40;;;;;;4922287;29;20211;-85
2021/04/15 18:55:05;;;;;;;4.15;3.25;;;6.80;58.20;;;;;;4921344;29;20605;-85
2021/04/15 18:57:32;;;;;;;3.50;3.20;;;6.80;58.50;;;;;;4922563;29;20230;-85
2021/04/15 18:59:58;;;;;;;3.60;3.25;;;6.60;58.40;;;;;;4922241;29;20568;-83
2021/04/15 19:02:24;;;;;;;4.45;3.15;;;6.50;58.60;;;;;;4923130;29;20241;-85
2021/04/15 19:04:50;;;;;;;4.00;3.60;;;6.50;59.00;;;;;;4923223;29;20230;-83
2021/04/15 19:07:17;;;;;;;3.75;3.35;;;6.40;59.20;;;;;;4923020;29;20236;-83
2021/04/15 19:09:43;;;;;;;3.00;2.80;;;6.40;59.60;;;;;;4922803;29;20711;-84
2021/04/15 19:12:11;;;;;;;6.38;5.88;;;6.30;59.80;;;;;;4922320;29;20583;-84
2021/04/15 19:14:37;;;;;;;5.13;4.72;;;6.20;60.30;;;;;;4923011;29;20242;-83
2021/04/15 19:17:03;;;;;;;4.93;3.50;;;6.10;60.50;;;;;;4923398;29;20229;-83
2021/04/15 19:19:30;;;;;;;6.40;3.40;;;6.10;61.10;;;;;;4922876;29;20273;-83
2021/04/15 19:21:56;;;;;;;4.38;3.97;;;6.00;61.40;;;;;;4923276;29;20225;-82
2021/04/15 19:24:23;;;;;;;3.55;3.25;;;5.90;61.50;;;;;;4922361;29;20226;-83
2021/04/15 19:26:51;;;;;;;4.07;3.67;;;5.90;61.90;;;;;;4923312;29;20245;-84
2021/04/15 19:29:18;;;;;;;5.15;4.75;;;5.90;62.50;;;;;;4923353;29;20214;-84
2021/04/15 19:31:45;;;;;;;4.22;3.30;;;5.70;62.60;;;;;;4923016;29;20226;-84
2021/04/15 19:34:14;;;;;;;4.07;3.28;;;5.60;63.00;;;;;;4923261;29;20622;-84
2021/04/15 19:36:40;;;;;;;4.03;3.70;;;5.60;63.30;;;;;;4923282;29;20688;-84
2021/04/15 19:39:09;;;;;;;4.78;4.38;;;5.50;63.70;;;;;;4922399;29;20633;-84
2021/04/15 19:41:36;;;;;;;9.30;4.50;;;5.50;64.00;;;;;;4925082;29;20866;-84
2021/04/15 19:44:03;;;;;;;5.15;4.65;;;5.40;64.40;;;;;;4926265;29;20232;-83
2021/04/15 19:46:43;;;;;;;4.53;3.95;;;5.40;64.60;;;;;;4926266;29;20237;-86
2021/04/15 19:49:10;;;;;;;4.50;4.10;;;5.40;65.00;;;;;;4932160;29;20292;-84
2021/04/15 19:51:43;;;;;;;8.05;4.20;;;5.40;65.70;;;;;;4938077;29;20238;-82
2021/04/15 19:54:10;;;;;;;4.30;3.90;;;5.30;65.50;;;;;;4930443;29;20225;-83
2021/04/15 19:56:36;;;;;;;5.30;4.40;;;5.30;65.80;;;;;;4943738;29;20214;-82
2021/04/15 19:59:06;;;;;;;5.93;4.85;;;5.30;65.90;;;;;;4945677;29;20206;-83
2021/04/15 20:01:35;;;;;;;5.57;4.53;;;5.20;66.20;;;;;;4945217;29;20202;-84
2021/04/15 20:04:05;;;;;;;7.65;5.72;;;5.20;66.60;;;;;;4944632;29;20260;-83
2021/04/15 20:06:35;;;;;;;6.05;5.45;;;5.10;66.80;;;;;;4937798;29;20281;-83
2021/04/15 20:09:06;;;;;;;5.35;4.85;;;5.10;67.20;;;;;;4944520;29;20213;-84
2021/04/15 20:11:35;;;;;;;5.50;4.47;;;5.00;67.30;;;;;;4938020;29;20269;-84
2021/04/15 20:14:02;;;;;;;4.05;3.72;;;5.00;67.80;;;;;;4938276;29;20227;-84
2021/04/15 20:16:30;;;;;;;5.50;5.03;;;5.00;68.10;;;;;;4935949;29;20206;-84
2021/04/15 20:18:58;;;;;;;4.55;4.07;;;5.00;68.40;;;;;;4932047;29;20222;-84
2021/04/15 20:21:25;;;;;;;5.63;4.40;;;4.90;68.30;;;;;;4931043;29;20206;-83
2021/04/15 20:23:53;;;;;;;3.83;3.60;;;4.90;68.80;;;;;;4932376;29;20210;-83
2021/04/15 20:26:19;;;;;;;6.03;4.80;;;4.90;69.10;;;;;;4941763;29;20210;-83
2021/04/15 20:28:45;;;;;;;4.95;4.55;;;4.80;69.30;;;;;;4940774;28;20202;-82
2021/04/15 20:31:15;;;;;;;4.10;3.70;;;4.80;69.90;;;;;;4946936;28;20210;-83
2021/04/15 20:33:41;;;;;;;4.50;4.10;;;4.70;70.40;;;;;;4952417;28;20269;-82
2021/04/15 20:36:08;;;;;;;5.25;4.78;;;4.70;70.80;;;;;;4949587;29;20225;-82
2021/04/15 20:38:38;;;;;;;4.63;4.22;;;4.70;71.20;;;;;;4950268;29;20232;-84
2021/04/15 20:41:09;;;;;;;4.85;4.45;;;4.50;71.70;;;;;;4929884;29;20244;-84
2021/04/15 20:43:36;;;;;;;5.28;3.92;;;4.50;72.10;;;;;;4926274;29;20214;-84
2021/04/15 20:46:03;;;;;;;5.97;4.80;;;4.50;72.60;;;;;;4926124;29;20230;-84
2021/04/15 20:48:30;;;;;;;4.50;4.10;;;4.60;73.20;;;;;;4928284;29;20233;-84
2021/04/15 20:50:58;;;;;;;5.75;4.75;;;4.60;73.50;;;;;;4929639;29;20211;-83
2021/04/15 20:53:27;;;;;;;5.75;4.50;;;4.60;73.80;;;;;;4937819;29;20213;-83
2021/04/15 20:55:55;;;;;;;5.90;4.72;;;4.60;74.00;;;;;;4940007;29;20258;-84
2021/04/15 20:58:22;;;;;;;5.00;4.55;;;4.50;74.70;;;;;;4941297;29;20268;-83
2021/04/15 21:00:50;;;;;;;5.40;4.80;;;4.50;75.10;;;;;;4936481;29;20679;-83
2021/04/15 21:03:21;;;;;;;4.97;4.15;;;4.50;75.50;;;;;;4929944;29;20221;-83
2021/04/15 21:05:48;;;;;;;6.35;5.55;;;4.40;75.80;;;;;;4929240;29;20269;-84
2021/04/15 21:08:15;;;;;;;5.18;4.75;;;4.40;76.00;;;;;;4928838;29;20229;-83
2021/04/15 21:10:47;;;;;;;4.40;3.60;;;4.40;76.40;;;;;;4925719;29;20206;-83
2021/04/15 21:13:20;;;;;;;5.25;4.40;;;4.40;77.00;;;;;;4924236;29;20210;-83
2021/04/15 21:15:50;;;;;;;5.10;3.53;;;4.40;77.50;;;;;;4924503;29;20234;-83
2021/04/15 21:18:16;;;;;;;5.93;4.90;;;4.40;77.60;;;;;;4923884;29;20206;-84
2021/04/15 21:20:46;;;;;;;4.95;4.55;;;4.40;78.30;;;;;;4923175;29;20221;-83
2021/04/15 21:23:13;;;;;;;5.22;4.72;;;4.40;78.70;;;;;;4923239;29;20210;-84
2021/04/15 21:25:39;;;;;;;6.15;4.43;;;4.40;79.10;;;;;;4922976;29;20726;-84
2021/04/15 21:28:11;;;;;;;5.20;4.80;;;4.40;79.50;;;;;;4923091;29;20232;-84
2021/04/15 21:30:38;;;;;;;4.88;4.43;;;4.40;79.70;;;;;;4922977;29;20214;-83
2021/04/15 21:33:08;;;;;;;8.40;5.15;;;4.30;79.90;;;;;;4923539;29;20209;-84
2021/04/15 21:35:35;;;;;;;4.68;4.25;;;4.30;80.10;;;;;;4923108;29;20305;-84
2021/04/15 21:38:04;;;;;;;7.00;4.50;;;4.30;80.40;;;;;;4923284;29;20206;-84
2021/04/15 21:40:32;;;;;;;6.07;4.25;;;4.30;80.70;;;;;;4922722;29;20221;-83
2021/04/15 21:43:00;;;;;;;5.30;4.85;;;4.30;81.10;;;;;;4922340;29;20218;-84
2021/04/15 21:45:29;;;;;;;4.72;4.32;;;4.10;81.40;;;;;;4923418;29;20259;-83
2021/04/15 21:47:58;;;;;;;6.35;4.80;;;4.10;81.90;;;;;;4922719;29;20297;-85
2021/04/15 21:50:34;;;;;;;5.68;5.05;;;4.00;82.40;;;;;;4922550;29;20210;-85
2021/04/15 21:53:02;;;;;;;5.05;4.68;;;4.00;82.80;;;;;;4922824;29;20214;-84
